ADDS METAR Data INFO
IDs: Format: Raw Decoded Include TAF

Data at: 0058 UTC 21 Oct 2017

KFFX 210052Z AUTO 16003KT 10SM CLR 17/10 A3007 RMK AO2 T01710098
KFFX 210032Z AUTO 16003KT 10SM CLR 17/10 A3007 RMK AO2 T01720099
KFFX 210012Z AUTO 17003KT 10SM CLR 17/10 A3006 RMK AO2 T01740099
KFFX 202352Z AUTO 18003KT 10SM CLR 17/10 A3007 RMK AO2 T01690097
KFFX 202332Z AUTO 00000KT 10SM CLR 17/10 A3007 RMK AO2 T01720100
KFFX 202311Z AUTO 00000KT 10SM CLR 19/10 A3007 RMK AO2 T01940096
KFFX 202251Z AUTO 00000KT 10SM CLR 20/10 A3007 RMK AO2 T01950098
KFFX 202231Z AUTO 19004KT 10SM CLR 20/10 A3007 RMK AO2 T02030100
KFFX 202211Z AUTO 20005KT 7SM CLR 21/10 A3007 RMK AO2 T02050103
KFFX 202151Z AUTO 21006KT 10SM CLR 21/10 A3007 RMK AO2 T02050099
KFFX 202131Z AUTO 20007KT 5SM HZ CLR 21/10 A3008 RMK AO2 T02140096
KFFX 202111Z AUTO 21009KT 7SM CLR 23/10 A3008 RMK AO2 T02280099
KFFX 202051Z AUTO 21007KT 7SM CLR 23/10 A3008 RMK AO2 T02280100
KFFX 202031Z AUTO 20009KT 5SM HZ CLR 22/10 A3009 RMK AO2 T02240096
KFFX 202011Z AUTO 23011G16KT 7SM CLR 23/10 A3009 RMK AO2 T02280097
KFFX 201951Z AUTO 20010G14KT 7SM CLR 24/10 A3009 RMK AO2 T02370099
KFFX 201931Z AUTO 22014G18KT 7SM CLR 23/09 A3009 RMK AO2 T02310094
KFFX 201910Z AUTO 20012G16KT 10SM CLR 24/10 A3010 RMK AO2 T02350100
KFFX 201850Z AUTO 21011G14KT 7SM CLR 24/11 A3010 RMK AO2 T02390106
KFFX 201830Z AUTO 20008KT 7SM CLR 24/11 A3011 RMK AO2 T02360105
KFFX 201810Z AUTO 23009KT 7SM CLR 24/10 A3011 RMK AO2 T02350103
KFFX 201750Z AUTO 22009KT 7SM CLR 23/10 A3012 RMK AO2 T02330097
KFFX 201730Z AUTO 22012KT 7SM CLR 23/10 A3013 RMK AO2 T02310097
KFFX 201715Z AUTO 23010KT 10SM CLR 23/10 A3014 RMK AO2 T02310099
KFFX 201655Z AUTO 21009G17KT 10SM CLR 23/11 A3015 RMK AO2 T02250106
KFFX 201635Z AUTO 21009KT 10SM CLR 22/11 A3015 RMK AO2 T02150105
KFFX 201615Z AUTO 20008KT 10SM CLR 21/10 A3016 RMK AO2 T02110103
KFFX 201555Z AUTO 20007KT 10SM CLR 20/10 A3016 RMK AO2 T01990102
KFFX 201535Z AUTO 21008KT 10SM CLR 19/10 A3017 RMK AO2 T01870096
KFFX 201514Z AUTO 19006KT 10SM CLR 18/09 A3017 RMK AO2 T01760094
KFFX 201454Z AUTO 19006KT 10SM CLR 16/09 A3017 RMK AO2 T01630087
KFFX 201434Z AUTO 19006KT 10SM CLR 15/08 A3018 RMK AO2 T01540082
KFFX 201414Z AUTO 19004KT 10SM CLR 14/08 A3018 RMK AO2 T01440076
KFFX 201354Z AUTO 18004KT 10SM CLR 13/07 A3018 RMK AO2 T01330066
KFFX 201334Z AUTO 18004KT 10SM CLR 12/06 A3018 RMK AO2 T01200055
KFFX 201314Z AUTO 17004KT 10SM CLR 11/04 A3018 RMK AO2 T01100044
KFFX 201254Z AUTO 17004KT 10SM CLR 10/04 A3018 RMK AO2 T01020036
KFFX 201234Z AUTO 17004KT 10SM CLR 10/03 A3018 RMK AO2 T00970026
KFFX 201214Z AUTO 17004KT 10SM CLR 09/02 A3017 RMK AO2 T00930016
KFFX 201154Z AUTO 17005KT 10SM CLR 10/01 A3017 RMK AO2 T00950013
KFFX 201134Z AUTO 17004KT 10SM CLR 09/01 A3017 RMK AO2 T00910008
KFFX 201114Z AUTO 16003KT 10SM CLR 09/00 A3017 RMK AO2 T00890000
KFFX 201053Z AUTO 16003KT 10SM CLR 09/00 A3016 RMK AO2 T00881005
KFFX 201033Z AUTO 15003KT 10SM CLR 09/00 A3016 RMK AO2 T00861002
KFFX 201013Z AUTO 14003KT 10SM CLR 08/01 A3016 RMK AO2 T00760007
KFFX 200953Z AUTO 00000KT 10SM CLR 06/02 A3016 RMK AO2 T00640021
KFFX 200933Z AUTO 13003KT 10SM CLR 06/02 A3016 RMK AO2 T00630024
KFFX 200912Z AUTO 00000KT 10SM CLR 06/03 A3016 RMK AO2 T00550030
KFFX 200852Z AUTO 13003KT 10SM CLR 06/04 A3016 RMK AO2 T00580038
KFFX 200831Z AUTO 00000KT 10SM CLR 06/04 A3015 RMK AO2 T00550040
KFFX 200811Z AUTO 00000KT 10SM CLR 06/04 A3016 RMK AO2 T00610041
KFFX 200751Z AUTO 00000KT 10SM CLR 07/04 A3016 RMK AO2 T00650043
KFFX 200730Z AUTO 00000KT 10SM CLR 06/04 A3016 RMK AO2 T00640044
KFFX 200710Z AUTO 00000KT 10SM CLR 07/05 A3016 RMK AO2 T00720045
KFFX 200655Z AUTO 00000KT 10SM CLR 07/05 A3016 RMK AO2 T00650046
KFFX 200635Z AUTO 13003KT 10SM CLR 06/05 A3016 RMK AO2 T00620050
KFFX 200615Z AUTO 00000KT 10SM CLR 06/05 A3016 RMK AO2 T00620054
KFFX 200554Z AUTO 00000KT 10SM CLR 06/05 A3017 RMK AO2 T00620052
KFFX 200534Z AUTO 00000KT 10SM CLR 06/05 A3017 RMK AO2 T00590052
KFFX 200514Z AUTO 09003KT 10SM CLR 06/05 A3017 RMK AO2 T00630053
KFFX 200454Z AUTO 00000KT 10SM CLR 06/05 A3017 RMK AO2 T00600053
KFFX 200434Z AUTO 00000KT 10SM CLR 06/05 A3017 RMK AO2 T00620051
KFFX 200413Z AUTO 00000KT 10SM CLR 07/05 A3016 RMK AO2 T00670054
KFFX 200353Z AUTO 00000KT 10SM CLR 07/05 A3017 RMK AO2 T00670051
KFFX 200332Z AUTO 00000KT 10SM CLR 07/05 A3017 RMK AO2 T00700053
KFFX 200312Z AUTO 00000KT 10SM CLR 07/05 A3017 RMK AO2 T00670048
KFFX 200251Z AUTO 14003KT 10SM CLR 07/05 A3017 RMK AO2 T00700045
KFFX 200231Z AUTO 00000KT 10SM CLR 07/04 A3016 RMK AO2 T00710039
KFFX 200211Z AUTO 00000KT 10SM CLR 08/04 A3015 RMK AO2 T00800036
KFFX 200151Z AUTO 00000KT 10SM CLR 09/04 A3016 RMK AO2 T00900039
KFFX 200131Z AUTO 00000KT 10SM CLR 08/03 A3016 RMK AO2 T00810034
KFFX 200111Z AUTO 00000KT 10SM CLR 09/04 A3016 RMK AO2 T00890036
KFFX 200050Z AUTO 00000KT 10SM CLR 09/04 A3016 RMK AO2 T00900035
KFFX 200030Z AUTO 00000KT 10SM CLR 09/03 A3016 RMK AO2 T00850033
KFFX 200010Z AUTO 00000KT 10SM CLR 11/03 A3016 RMK AO2 T01100031
KFFX 192350Z AUTO 00000KT 10SM CLR 11/03 A3016 RMK AO2 T01130030
KFFX 192330Z AUTO 21003KT 10SM CLR 11/03 A3016 RMK AO2 T01070030
KFFX 192310Z AUTO 21003KT 10SM CLR 12/02 A3015 RMK AO2 T01160016
KFFX 192255Z AUTO 24004KT 10SM CLR 13/00 A3015 RMK AO2 T01310003
KFFX 192235Z AUTO 25005KT 10SM CLR 15/00 A3015 RMK AO2 T01461002
KFFX 192215Z AUTO 26003KT 10SM CLR 16/M01 A3014 RMK AO2 T01561009
KFFX 192155Z AUTO 25005KT 10SM CLR 16/M01 A3013 RMK AO2 T01601011
KFFX 192135Z AUTO 25006KT 10SM CLR 16/00 A3014 RMK AO2 T01641002
KFFX 192115Z AUTO 23008KT 10SM CLR 17/00 A3014 RMK AO2 T01711001
KFFX 192054Z AUTO 28009KT 10SM CLR 18/M01 A3014 RMK AO2 T01751010
KFFX 192034Z AUTO 28007KT 10SM CLR 18/M01 A3014 RMK AO2 T01781009
KFFX 192014Z AUTO 27009KT 10SM CLR 18/M01 A3014 RMK AO2 T01751014
KFFX 191954Z AUTO 27008KT 10SM CLR 18/M02 A3013 RMK AO2 T01801024
KFFX 191934Z AUTO 30010G15KT 10SM CLR 18/M02 A3013 RMK AO2 T01781017
KFFX 191914Z AUTO 29010G16KT 10SM CLR 18/M01 A3013 RMK AO2 T01781015
KFFX 191854Z AUTO 29010G15KT 10SM CLR 18/M01 A3013 RMK AO2 T01801008
KFFX 191834Z AUTO 28008KT 10SM CLR 18/M01 A3013 RMK AO2 T01831007
KFFX 191759Z AUTO 31010KT 10SM CLR 18/M02 A3014 RMK AO2 T01811023 10184 20100
KFFX 191734Z AUTO 29010KT 10SM CLR 18/M03 A3014 RMK AO2 T01841028
KFFX 191714Z AUTO 29010G15KT 10SM CLR 18/M01 A3014 RMK AO2 T01771015
KFFX 191653Z AUTO 31006KT 10SM CLR 18/M01 A3014 RMK AO2 T01791011
KFFX 191633Z AUTO 28008KT 260V320 10SM CLR 17/M01 A3014 RMK AO2 T01741009
KFFX 191613Z AUTO 29010KT 10SM CLR 17/M01 A3013 RMK AO2 T01701010
KFFX 191553Z AUTO 28007KT 10SM CLR 17/00 A3013 RMK AO2 T01661002
KFFX 191533Z AUTO 29009KT 10SM CLR 16/01 A3012 RMK AO2 T01590009
KFFX 191513Z AUTO 30010KT 10SM CLR 15/02 A3012 RMK AO2 T01520020
KFFX 191453Z AUTO 29009KT 10SM CLR 15/03 A3011 RMK AO2 T01450028
KFFX 191433Z AUTO 29009KT 10SM CLR 14/03 A3011 RMK AO2 T01430029
KFFX 191413Z AUTO 29004KT 10SM CLR 14/03 A3010 RMK AO2 T01360028
KFFX 191353Z AUTO 29005KT 10SM CLR 13/04 A3009 RMK AO2 T01300036
KFFX 191333Z AUTO 26004KT 10SM CLR 12/04 A3008 RMK AO2 T01240039
KFFX 191313Z AUTO 00000KT 10SM CLR 12/04 A3008 RMK AO2 T01150040